createdAt,value
2023-02-13T00:01:01.172Z,1.61
2023-02-13T00:02:03.065Z,1.63
2023-02-13T00:03:05.230Z,1.64
2023-02-13T00:04:06.759Z,1.72
2023-02-13T00:05:08.510Z,1.74
2023-02-13T00:06:10.165Z,1.72
2023-02-13T00:07:12.366Z,1.73
2023-02-13T00:08:14.006Z,1.71
2023-02-13T00:09:15.633Z,1.71
2023-02-13T00:10:17.625Z,1.72
2023-02-13T00:11:20.616Z,1.73
2023-02-13T00:12:22.179Z,1.73
2023-02-13T00:13:23.723Z,1.70
2023-02-13T00:14:25.348Z,1.70
2023-02-13T00:15:27.092Z,1.68
2023-02-13T00:16:28.686Z,1.63
2023-02-13T00:17:30.448Z,1.60
2023-02-13T00:18:36.453Z,1.60
2023-02-13T00:19:38.050Z,1.62
2023-02-13T00:20:39.656Z,1.62
2023-02-13T00:21:41.236Z,1.63
2023-02-13T00:22:42.768Z,1.63
2023-02-13T00:23:44.477Z,1.64
2023-02-13T00:24:46.098Z,1.63
2023-02-13T00:25:47.688Z,1.63
2023-02-13T00:26:49.317Z,1.62
2023-02-13T00:27:52.269Z,1.63
2023-02-13T00:28:53.894Z,1.63
2023-02-13T00:29:55.415Z,1.62
2023-02-13T00:31:13.298Z,1.59
2023-02-13T00:32:15.061Z,1.58
2023-02-13T00:33:16.792Z,1.56
2023-02-13T00:34:18.380Z,1.52
2023-02-13T00:35:19.947Z,1.51
2023-02-13T00:36:22.669Z,1.52
2023-02-13T00:37:25.175Z,1.54
2023-02-13T00:38:26.676Z,1.52
2023-02-13T00:39:28.407Z,1.50
2023-02-13T00:40:29.958Z,1.47
2023-02-13T00:41:31.537Z,1.45
2023-02-13T00:42:33.097Z,1.46
2023-02-13T00:43:35.629Z,1.48
2023-02-13T00:44:37.219Z,1.50
2023-02-13T00:45:38.778Z,1.45
2023-02-13T00:46:40.388Z,1.43
2023-02-13T00:47:41.936Z,1.43
2023-02-13T00:48:44.371Z,1.43
2023-02-13T00:49:46.498Z,1.18
2023-02-13T00:50:48.176Z,0.92
2023-02-13T00:51:49.703Z,0.66
2023-02-13T00:52:51.208Z,0.43
2023-02-13T00:53:52.774Z,0.25
2023-02-13T00:54:54.389Z,0.19
2023-02-13T00:55:55.960Z,0.18
2023-02-13T00:56:57.583Z,0.16
2023-02-13T00:57:59.080Z,0.19
2023-02-13T00:59:00.650Z,0.14
2023-02-13T01:00:02.581Z,0.08
2023-02-13T01:01:04.252Z,0.03
2023-02-13T01:02:05.794Z,0.06
2023-02-13T01:03:07.620Z,0.12
2023-02-13T01:04:09.232Z,0.22
2023-02-13T01:05:10.823Z,0.25
2023-02-13T01:06:12.527Z,0.31
2023-02-13T01:07:15.768Z,0.38
2023-02-13T01:08:19.394Z,0.45
2023-02-13T01:09:20.928Z,0.48
2023-02-13T01:10:22.591Z,0.49
2023-02-13T01:11:24.234Z,0.50
2023-02-13T01:12:25.950Z,0.49
2023-02-13T01:13:27.702Z,0.41
2023-02-13T01:14:29.270Z,0.43
2023-02-13T01:15:31.130Z,0.47
2023-02-13T01:16:32.686Z,0.43
2023-02-13T01:17:34.274Z,0.37
2023-02-13T01:18:35.859Z,0.32
2023-02-13T01:19:37.451Z,0.21
2023-02-13T01:20:38.998Z,0.14
2023-02-13T01:21:40.522Z,0.00
2023-02-13T01:22:44.387Z,-0.14
2023-02-13T01:23:46.977Z,-0.18
2023-02-13T01:24:48.656Z,-0.25
2023-02-13T01:25:51.798Z,-0.32
2023-02-13T01:26:53.353Z,-0.44
2023-02-13T01:27:54.909Z,-0.48
2023-02-13T01:28:58.053Z,-0.55
2023-02-13T01:30:00.187Z,-0.63
2023-02-13T01:31:02.717Z,-0.64
2023-02-13T01:32:05.247Z,-0.74
2023-02-13T01:33:06.844Z,-0.84
2023-02-13T01:34:08.359Z,-0.89
2023-02-13T01:35:11.427Z,-0.93
2023-02-13T01:36:14.441Z,-0.92
2023-02-13T01:37:16.451Z,-0.96
2023-02-13T01:38:18.786Z,-0.95
2023-02-13T01:39:20.346Z,-0.95
2023-02-13T01:40:21.998Z,-0.92
2023-02-13T01:41:25.118Z,-0.94
2023-02-13T01:42:30.216Z,-0.95
2023-02-13T01:43:53.572Z,-1.01
2023-02-13T01:45:04.128Z,-1.11
2023-02-13T01:46:05.764Z,-1.07
2023-02-13T01:47:09.789Z,-0.99
2023-02-13T01:48:22.910Z,-0.92
2023-02-13T01:49:26.128Z,-0.83
2023-02-13T01:50:41.111Z,-0.85
2023-02-13T01:51:43.742Z,-0.83
2023-02-13T01:53:00.418Z,-0.83
2023-02-13T01:54:07.526Z,-0.95
2023-02-13T01:55:10.971Z,-1.06
2023-02-13T01:56:29.936Z,-1.22
2023-02-13T01:57:32.727Z,-1.39
2023-02-13T01:58:37.953Z,-1.60
2023-02-13T01:59:55.356Z,-1.70
2023-02-13T02:00:58.612Z,-1.66
2023-02-13T02:02:01.482Z,-1.57
2023-02-13T02:03:11.053Z,-1.51
2023-02-13T02:04:18.440Z,-1.44
2023-02-13T02:05:24.033Z,-1.40
2023-02-13T02:06:29.330Z,-1.36
2023-02-13T02:07:32.788Z,-1.24
2023-02-13T02:08:34.943Z,-1.21
2023-02-13T02:09:41.102Z,-1.22
2023-02-13T02:10:43.004Z,-1.15
2023-02-13T02:11:47.521Z,-1.02
2023-02-13T02:13:07.382Z,-0.93
2023-02-13T02:14:09.139Z,-0.86
2023-02-13T02:15:10.988Z,-0.84
2023-02-13T02:16:12.798Z,-0.81
2023-02-13T02:17:14.440Z,-0.75
2023-02-13T02:18:19.685Z,-0.69
2023-02-13T02:19:41.455Z,-0.74
2023-02-13T02:20:43.002Z,-0.72
2023-02-13T02:22:17.919Z,-0.64
2023-02-13T02:23:59.659Z,-0.50
2023-02-13T02:25:18.538Z,-0.39
2023-02-13T02:27:01.619Z,-0.35
2023-02-13T02:28:27.784Z,-0.34
2023-02-13T02:29:32.194Z,-0.29
2023-02-13T02:30:46.136Z,-0.25
2023-02-13T02:32:09.669Z,-0.19
2023-02-13T02:33:20.354Z,-0.14
2023-02-13T02:34:37.096Z,-0.07
2023-02-13T02:36:11.198Z,-0.03
2023-02-13T02:37:43.778Z,0.04
2023-02-13T02:38:51.277Z,0.05
2023-02-13T02:40:19.054Z,0.08
2023-02-13T02:41:41.648Z,0.11
2023-02-13T02:42:55.602Z,0.11
2023-02-13T02:44:24.713Z,0.14
2023-02-13T02:45:40.904Z,0.16
2023-02-13T02:47:15.015Z,0.18
2023-02-13T02:48:53.228Z,0.19
2023-02-13T02:50:07.474Z,0.23
2023-02-13T02:51:33.083Z,0.23
2023-02-13T02:52:57.565Z,0.25
2023-02-13T02:54:35.810Z,0.25
2023-02-13T02:56:05.074Z,0.27
2023-02-13T02:57:49.863Z,0.28
2023-02-13T02:59:24.028Z,0.30
2023-02-13T03:00:47.506Z,0.25
2023-02-13T03:02:09.271Z,0.26
2023-02-13T03:03:43.890Z,0.17
2023-02-13T03:05:11.769Z,0.12
2023-02-13T03:06:38.535Z,0.03
2023-02-13T03:07:40.106Z,-0.02
2023-02-13T03:09:04.620Z,0.01
2023-02-13T03:10:28.923Z,-0.02
2023-02-13T03:11:49.253Z,0.00
2023-02-13T03:13:15.390Z,0.01
2023-02-13T03:14:21.232Z,-0.01
2023-02-13T03:15:26.298Z,-0.08
2023-02-13T03:16:46.238Z,-0.11
2023-02-13T03:18:06.334Z,-0.13
2023-02-13T03:19:36.838Z,-0.38
2023-02-13T03:21:14.416Z,-0.57
2023-02-13T03:22:42.178Z,-0.56
2023-02-13T03:23:51.172Z,-0.53
2023-02-13T03:25:10.990Z,-0.55
2023-02-13T03:26:18.314Z,-0.63
2023-02-13T03:28:26.612Z,-0.68
2023-02-13T03:29:58.765Z,-1.16
2023-02-13T03:31:29.896Z,-1.44
2023-02-13T03:32:34.417Z,-1.61
2023-02-13T03:33:45.005Z,-1.96
2023-02-13T03:35:14.456Z,-2.09
2023-02-13T03:36:55.758Z,-2.22
2023-02-13T03:38:08.445Z,-2.21
2023-02-13T03:39:09.997Z,-2.18
2023-02-13T03:41:00.367Z,-2.03
2023-02-13T03:42:06.227Z,-1.90
2023-02-13T03:43:15.145Z,-1.83
2023-02-13T03:44:40.243Z,-1.73
2023-02-13T03:45:57.193Z,-1.68
2023-02-13T03:47:02.382Z,-1.72
2023-02-13T03:48:27.611Z,-1.74
2023-02-13T03:50:04.044Z,-1.75
2023-02-13T03:51:08.689Z,-1.86
2023-02-13T03:52:23.263Z,-1.81
2023-02-13T03:53:27.329Z,-1.73
2023-02-13T03:54:53.797Z,-1.71
2023-02-13T03:56:16.718Z,-1.72
2023-02-13T03:57:39.865Z,-1.81
2023-02-13T03:59:05.318Z,-1.93
2023-02-13T04:00:11.168Z,-1.95
2023-02-13T04:01:16.955Z,-1.90
2023-02-13T04:02:24.541Z,-1.89
2023-02-13T04:03:35.605Z,-1.80
2023-02-13T04:04:49.948Z,-1.79
2023-02-13T04:06:14.120Z,-1.74
2023-02-13T04:07:29.617Z,-1.70
2023-02-13T04:08:31.331Z,-1.65
2023-02-13T04:09:37.465Z,-1.71
2023-02-13T04:10:50.295Z,-1.86
2023-02-13T04:12:03.349Z,-2.10
2023-02-13T04:13:13.314Z,-2.14
2023-02-13T04:14:22.002Z,-2.01
2023-02-13T04:15:33.723Z,-1.86
2023-02-13T04:16:42.635Z,-1.71
2023-02-13T04:17:50.236Z,-1.59
2023-02-13T04:18:53.162Z,-1.64
2023-02-13T04:19:54.928Z,-1.72
2023-02-13T04:20:56.816Z,-1.69
2023-02-13T04:22:01.231Z,-1.73
2023-02-13T04:23:08.720Z,-1.72
2023-02-13T04:24:10.669Z,-1.61
2023-02-13T04:25:13.964Z,-1.55
2023-02-13T04:26:19.607Z,-1.59
2023-02-13T04:27:21.199Z,-1.72
2023-02-13T04:28:22.869Z,-1.81
2023-02-13T04:29:25.973Z,-1.86
2023-02-13T04:30:27.601Z,-1.86
2023-02-13T04:31:29.208Z,-1.82
2023-02-13T04:32:30.811Z,-1.73
2023-02-13T04:33:32.349Z,-1.62
2023-02-13T04:34:33.997Z,-1.52
2023-02-13T04:35:35.585Z,-1.47
2023-02-13T04:36:37.190Z,-1.46
2023-02-13T04:37:38.799Z,-1.37
2023-02-13T04:38:40.361Z,-1.28
2023-02-13T04:39:41.934Z,-1.28
2023-02-13T04:40:43.527Z,-1.33
2023-02-13T04:41:45.244Z,-1.39
2023-02-13T04:42:50.494Z,-1.32
2023-02-13T04:43:52.585Z,-1.29
2023-02-13T04:44:54.151Z,-1.23
2023-02-13T04:45:55.736Z,-1.23
2023-02-13T04:46:57.302Z,-1.21
2023-02-13T04:47:59.463Z,-1.14
2023-02-13T04:49:01.046Z,-1.09
2023-02-13T04:50:02.680Z,-1.01
2023-02-13T04:51:04.503Z,-0.98
2023-02-13T04:52:06.113Z,-0.95
2023-02-13T04:53:07.741Z,-0.95
2023-02-13T04:54:11.228Z,-0.97
2023-02-13T04:55:13.269Z,-1.01
2023-02-13T04:56:15.156Z,-1.04
2023-02-13T04:57:16.731Z,-0.99
2023-02-13T04:58:18.502Z,-0.94
2023-02-13T04:59:20.015Z,-0.90
2023-02-13T05:00:23.364Z,-0.84
2023-02-13T05:01:24.949Z,-0.79
2023-02-13T05:02:26.714Z,-0.78
2023-02-13T05:03:28.305Z,-0.75
2023-02-13T05:04:29.932Z,-0.71
2023-02-13T05:05:31.619Z,-0.68
2023-02-13T05:06:33.180Z,-0.75
2023-02-13T05:07:34.716Z,-0.84
2023-02-13T05:08:36.307Z,-0.87
2023-02-13T05:09:39.541Z,-0.87
2023-02-13T05:10:42.084Z,-0.84
2023-02-13T05:11:43.684Z,-0.82
2023-02-13T05:12:45.235Z,-0.82
2023-02-13T05:13:46.816Z,-0.93
2023-02-13T05:14:48.384Z,-1.09
2023-02-13T05:15:50.501Z,-1.21
2023-02-13T05:16:52.278Z,-1.25
2023-02-13T05:17:53.951Z,-1.28
2023-02-13T05:18:55.509Z,-1.32
2023-02-13T05:19:57.337Z,-1.38
2023-02-13T05:21:17.181Z,-1.43
2023-02-13T05:22:37.037Z,-1.46
2023-02-13T05:23:38.592Z,-1.60
2023-02-13T05:24:40.208Z,-1.55
2023-02-13T05:25:42.406Z,-1.44
2023-02-13T05:26:43.933Z,-1.35
2023-02-13T05:27:45.493Z,-1.28
2023-02-13T05:29:05.891Z,-1.26
2023-02-13T05:30:07.797Z,-1.24
2023-02-13T05:31:09.458Z,-1.34
2023-02-13T05:32:11.275Z,-1.46
2023-02-13T05:33:12.897Z,-1.53
2023-02-13T05:34:14.906Z,-1.48
2023-02-13T05:35:16.706Z,-1.39
2023-02-13T05:36:18.226Z,-1.33
2023-02-13T05:37:19.804Z,-1.30
2023-02-13T05:38:21.370Z,-1.39
2023-02-13T05:39:23.136Z,-1.45
2023-02-13T05:40:24.677Z,-1.44
2023-02-13T05:41:26.487Z,-1.51
2023-02-13T05:42:28.112Z,-1.68
2023-02-13T05:43:30.241Z,-1.81
2023-02-13T05:44:32.041Z,-1.89
2023-02-13T05:45:33.701Z,-1.93
2023-02-13T05:46:39.228Z,-1.91
2023-02-13T05:47:41.026Z,-1.84
2023-02-13T05:48:42.565Z,-1.79
2023-02-13T05:49:44.194Z,-1.68
2023-02-13T05:50:47.282Z,-1.61
2023-02-13T05:51:49.688Z,-1.51
2023-02-13T05:52:51.221Z,-1.41
2023-02-13T05:53:53.084Z,-1.32
2023-02-13T05:54:54.738Z,-1.23
2023-02-13T05:55:56.670Z,-1.16
2023-02-13T05:56:58.237Z,-1.07
2023-02-13T05:57:59.843Z,-1.00
2023-02-13T05:59:01.412Z,-0.95
2023-02-13T06:00:04.628Z,-0.93
2023-02-13T06:01:06.270Z,-0.88
2023-02-13T06:02:07.991Z,-0.88
2023-02-13T06:03:09.542Z,-0.84
2023-02-13T06:04:11.167Z,-0.82
2023-02-13T06:05:12.809Z,-0.81
2023-02-13T06:06:14.551Z,-0.76
2023-02-13T06:07:16.171Z,-0.68
2023-02-13T06:08:17.815Z,-0.61
2023-02-13T06:09:19.378Z,-0.54
2023-02-13T06:10:21.051Z,-0.49
2023-02-13T06:11:22.643Z,-0.43
2023-02-13T06:12:24.205Z,-0.40
2023-02-13T06:13:26.103Z,-0.46
2023-02-13T06:14:28.286Z,-0.39
2023-02-13T06:15:29.830Z,-0.31
2023-02-13T06:16:31.460Z,-0.25
2023-02-13T06:17:33.059Z,-0.18
2023-02-13T06:18:35.335Z,-0.14
2023-02-13T06:19:36.941Z,-0.17
2023-02-13T06:20:38.649Z,-0.13
2023-02-13T06:21:40.231Z,-0.15
2023-02-13T06:22:41.745Z,-0.20
2023-02-13T06:23:43.362Z,-0.24
2023-02-13T06:24:44.936Z,-0.27
2023-02-13T06:25:46.486Z,-0.24
2023-02-13T06:26:48.017Z,-0.25
2023-02-13T06:27:49.625Z,-0.19
2023-02-13T06:28:51.540Z,-0.16
2023-02-13T06:29:53.148Z,-0.09
2023-02-13T06:30:54.883Z,-0.02
2023-02-13T06:31:57.528Z,0.05
2023-02-13T06:32:59.375Z,0.10
2023-02-13T06:34:01.038Z,0.13
2023-02-13T06:35:05.228Z,0.13
2023-02-13T06:36:07.560Z,0.12
2023-02-13T06:37:09.262Z,0.16
2023-02-13T06:38:10.811Z,0.18
2023-02-13T06:39:12.404Z,0.11
2023-02-13T06:40:14.965Z,0.06
2023-02-13T06:41:16.674Z,-0.01
2023-02-13T06:42:18.915Z,-0.05
2023-02-13T06:43:23.294Z,-0.26
2023-02-13T06:44:24.924Z,-0.21
2023-02-13T06:45:26.519Z,-0.16
2023-02-13T06:46:28.143Z,-0.10
2023-02-13T06:47:29.957Z,0.08
2023-02-13T06:48:31.523Z,0.23
2023-02-13T06:49:33.042Z,0.34
2023-02-13T06:50:34.751Z,0.40
2023-02-13T06:51:36.424Z,0.40
2023-02-13T06:52:38.086Z,0.47
2023-02-13T06:53:39.769Z,0.42
2023-02-13T06:54:47.759Z,0.45
2023-02-13T06:55:49.611Z,0.50
2023-02-13T06:56:51.352Z,0.58
2023-02-13T06:57:52.914Z,0.73
2023-02-13T06:58:54.467Z,0.85
2023-02-13T06:59:55.990Z,1.02
2023-02-13T07:00:57.881Z,1.15
2023-02-13T07:01:59.655Z,1.25
2023-02-13T07:03:03.420Z,1.36
2023-02-13T07:04:05.027Z,1.47
2023-02-13T07:05:07.224Z,1.61
2023-02-13T07:06:08.784Z,1.68
2023-02-13T07:07:10.399Z,1.76
2023-02-13T07:08:13.162Z,1.83
2023-02-13T07:09:14.803Z,1.89
2023-02-13T07:10:16.506Z,1.95
2023-02-13T07:11:19.615Z,2.05
2023-02-13T07:12:21.377Z,2.11
2023-02-13T07:13:23.306Z,2.22
2023-02-13T07:14:25.237Z,2.33
2023-02-13T07:15:27.335Z,2.42
2023-02-13T07:16:29.476Z,2.50
2023-02-13T07:17:31.602Z,2.57
2023-02-13T07:18:33.218Z,2.62
2023-02-13T07:19:34.756Z,2.53
2023-02-13T07:20:36.385Z,2.50
2023-02-13T07:21:38.111Z,2.49
2023-02-13T07:22:39.691Z,2.63
2023-02-13T07:23:41.512Z,2.72
2023-02-13T07:24:43.070Z,2.82
2023-02-13T07:25:44.583Z,2.97
2023-02-13T07:26:46.111Z,3.08
2023-02-13T07:27:47.643Z,3.22
2023-02-13T07:28:50.048Z,3.30
2023-02-13T07:29:52.931Z,3.37
2023-02-13T07:30:54.886Z,3.31
2023-02-13T07:31:58.076Z,3.22
2023-02-13T07:33:04.034Z,3.27
2023-02-13T07:34:05.632Z,3.33
2023-02-13T07:35:07.269Z,3.37
2023-02-13T07:36:09.003Z,3.44
2023-02-13T07:37:11.560Z,3.49
2023-02-13T07:38:13.183Z,3.54
2023-02-13T07:39:14.756Z,3.52
2023-02-13T07:40:16.312Z,3.48
2023-02-13T07:41:17.846Z,3.58
2023-02-13T07:42:19.467Z,3.60
2023-02-13T07:43:21.206Z,3.53
2023-02-13T07:44:22.718Z,3.61
2023-02-13T07:45:24.269Z,3.52
2023-02-13T07:46:25.878Z,3.47
2023-02-13T07:47:27.481Z,3.43
2023-02-13T07:48:30.244Z,3.36
2023-02-13T07:49:31.798Z,3.34
2023-02-13T07:50:33.368Z,3.50
2023-02-13T07:51:34.899Z,3.61
2023-02-13T07:52:37.963Z,3.61
2023-02-13T07:53:39.551Z,3.20
2023-02-13T07:54:47.427Z,2.77
2023-02-13T07:55:49.336Z,2.60
2023-02-13T07:56:50.913Z,2.53
2023-02-13T07:57:52.591Z,2.49
2023-02-13T07:58:54.192Z,2.49
2023-02-13T07:59:55.733Z,2.53
2023-02-13T08:00:57.344Z,2.31
2023-02-13T08:01:58.918Z,2.46
2023-02-13T08:03:01.648Z,2.62
2023-02-13T08:04:03.458Z,2.85
2023-02-13T08:05:05.512Z,3.05
2023-02-13T08:06:08.042Z,3.21
2023-02-13T08:07:09.613Z,3.31
2023-02-13T08:08:11.227Z,3.19
2023-02-13T08:09:39.748Z,3.24
2023-02-13T08:11:00.650Z,3.32
2023-02-13T08:12:02.276Z,3.53
2023-02-13T08:13:04.935Z,3.64
2023-02-13T08:14:06.441Z,3.68
2023-02-13T08:15:12.066Z,3.79
2023-02-13T08:16:13.632Z,3.94
2023-02-13T08:17:15.252Z,4.08
2023-02-13T08:18:18.899Z,4.23
2023-02-13T08:19:21.487Z,4.34
2023-02-13T08:20:24.074Z,4.13
2023-02-13T08:21:25.713Z,3.75
2023-02-13T08:22:27.268Z,3.66
2023-02-13T08:23:29.094Z,3.14
2023-02-13T08:24:30.683Z,2.73
2023-02-13T08:25:33.370Z,2.52
2023-02-13T08:26:35.167Z,2.55
2023-02-13T08:27:36.845Z,2.47
2023-02-13T08:28:38.455Z,2.46
2023-02-13T08:29:40.081Z,2.29
2023-02-13T08:30:41.794Z,2.31
2023-02-13T08:31:43.859Z,2.54
2023-02-13T08:32:54.510Z,2.64
2023-02-13T08:33:57.614Z,2.67
2023-02-13T08:34:59.179Z,2.82
2023-02-13T08:36:03.688Z,2.94
2023-02-13T08:37:05.267Z,3.09
2023-02-13T08:38:06.902Z,3.28
2023-02-13T08:39:09.961Z,3.38
2023-02-13T08:40:11.798Z,3.54
2023-02-13T08:41:14.139Z,3.63
2023-02-13T08:42:16.391Z,3.71
2023-02-13T08:43:18.135Z,3.78
2023-02-13T08:44:19.705Z,3.66
2023-02-13T08:45:21.271Z,3.69
2023-02-13T08:46:23.135Z,3.80
2023-02-13T08:47:24.697Z,3.62
2023-02-13T08:48:29.812Z,3.31
2023-02-13T08:49:31.360Z,2.97
2023-02-13T08:50:33.628Z,3.01
2023-02-13T08:51:36.180Z,3.22
2023-02-13T08:52:37.690Z,3.30
2023-02-13T08:53:40.178Z,3.28
2023-02-13T08:54:41.723Z,3.27
2023-02-13T08:55:43.262Z,3.40
2023-02-13T08:56:44.858Z,3.42
2023-02-13T08:57:46.591Z,3.44
2023-02-13T08:58:50.131Z,3.54
2023-02-13T08:59:51.745Z,3.60
2023-02-13T09:00:53.321Z,3.49
2023-02-13T09:01:54.902Z,3.61
2023-02-13T09:03:03.984Z,3.60
2023-02-13T09:04:05.810Z,3.74
2023-02-13T09:05:07.515Z,3.88
2023-02-13T09:06:09.102Z,4.14
2023-02-13T09:07:10.735Z,4.31
2023-02-13T09:08:13.718Z,4.45
2023-02-13T09:09:16.146Z,4.39
2023-02-13T09:10:18.331Z,4.37
2023-02-13T09:11:22.944Z,4.09
2023-02-13T09:12:24.553Z,4.02
2023-02-13T09:13:26.297Z,3.98
2023-02-13T09:14:27.866Z,4.05
2023-02-13T09:15:30.127Z,3.97
2023-02-13T09:16:31.896Z,3.99
2023-02-13T09:17:33.532Z,3.78
2023-02-13T09:18:35.461Z,3.76
2023-02-13T09:19:37.071Z,3.48
2023-02-13T09:20:38.641Z,3.58
2023-02-13T09:21:40.313Z,3.86
2023-02-13T09:22:42.122Z,4.10
2023-02-13T09:23:44.012Z,4.24
2023-02-13T09:24:45.601Z,4.19
2023-02-13T09:25:47.229Z,3.90
2023-02-13T09:26:48.956Z,3.97
2023-02-13T09:27:50.520Z,4.08
2023-02-13T09:28:52.077Z,4.08
2023-02-13T09:29:53.654Z,4.11
2023-02-13T09:30:55.412Z,4.03
2023-02-13T09:31:57.359Z,4.08
2023-02-13T09:32:59.051Z,4.19
2023-02-13T09:34:00.640Z,4.12
2023-02-13T09:35:02.232Z,4.01
2023-02-13T09:36:24.541Z,4.09
2023-02-13T09:37:27.131Z,4.18
2023-02-13T09:38:28.683Z,4.32
2023-02-13T09:39:30.316Z,4.38
2023-02-13T09:40:42.600Z,4.66
2023-02-13T09:41:47.322Z,4.88
2023-02-13T09:42:50.178Z,5.10
2023-02-13T09:44:06.460Z,5.24
2023-02-13T09:45:12.304Z,5.30
2023-02-13T09:46:40.640Z,5.10
2023-02-13T09:47:45.197Z,5.19
2023-02-13T09:48:56.150Z,5.29
2023-02-13T09:50:23.081Z,5.46
2023-02-13T09:51:27.837Z,5.53
2023-02-13T09:52:33.627Z,5.33
2023-02-13T09:53:36.355Z,5.19
2023-02-13T09:54:38.100Z,5.07
2023-02-13T09:55:53.014Z,4.84
2023-02-13T09:57:16.399Z,4.64
2023-02-13T09:58:27.143Z,4.68
2023-02-13T10:00:04.053Z,4.64
2023-02-13T10:01:17.684Z,4.68
2023-02-13T10:02:43.041Z,4.92
2023-02-13T10:04:11.613Z,5.05
2023-02-13T10:05:31.767Z,5.30
2023-02-13T10:06:50.054Z,5.45
2023-02-13T10:08:16.528Z,5.48
2023-02-13T10:09:41.152Z,5.55
2023-02-13T10:10:45.289Z,5.75
2023-02-13T10:12:16.099Z,5.83
2023-02-13T10:13:39.702Z,5.89
2023-02-13T10:14:47.361Z,5.93
2023-02-13T10:16:07.698Z,5.98
2023-02-13T10:17:18.777Z,6.06
2023-02-13T10:18:25.809Z,6.02
2023-02-13T10:19:55.388Z,6.01
2023-02-13T10:21:02.335Z,6.02
2023-02-13T10:22:26.064Z,5.90
2023-02-13T10:23:34.340Z,5.95
2023-02-13T10:24:38.976Z,5.99
2023-02-13T10:25:58.651Z,5.99
2023-02-13T10:27:05.252Z,6.05
2023-02-13T10:28:13.461Z,6.03
2023-02-13T10:29:51.262Z,6.06
2023-02-13T10:30:56.941Z,5.82
2023-02-13T10:32:02.267Z,5.80
2023-02-13T10:33:21.653Z,5.93
2023-02-13T10:34:27.332Z,6.06
2023-02-13T10:35:31.434Z,6.14
2023-02-13T10:36:37.686Z,5.91
2023-02-13T10:37:39.316Z,5.64
2023-02-13T10:38:56.826Z,5.49
2023-02-13T10:39:58.470Z,5.48
2023-02-13T10:41:10.647Z,5.47
2023-02-13T10:42:24.683Z,5.57
2023-02-13T10:43:30.124Z,5.64
2023-02-13T10:44:41.251Z,5.74
2023-02-13T10:45:45.509Z,5.85
2023-02-13T10:46:58.915Z,5.79
2023-02-13T10:48:14.796Z,5.91
2023-02-13T10:49:18.819Z,5.97
2023-02-13T10:50:34.459Z,6.04
2023-02-13T10:52:00.821Z,6.09
2023-02-13T10:53:32.142Z,6.15
2023-02-13T10:55:07.529Z,6.00
2023-02-13T10:56:25.653Z,5.86
2023-02-13T10:57:55.695Z,5.88
2023-02-13T10:59:19.623Z,5.76
2023-02-13T11:00:43.301Z,5.83
2023-02-13T11:01:52.733Z,5.95
2023-02-13T11:02:56.347Z,6.00
2023-02-13T11:04:13.552Z,6.06
2023-02-13T11:05:30.359Z,6.12
2023-02-13T11:06:34.728Z,6.16
2023-02-13T11:07:39.214Z,6.23
2023-02-13T11:08:47.637Z,6.22
2023-02-13T11:09:51.873Z,6.30
2023-02-13T11:10:53.658Z,6.42
2023-02-13T11:11:55.306Z,6.47
2023-02-13T11:12:56.852Z,6.46
2023-02-13T11:14:12.597Z,6.15
2023-02-13T11:15:40.365Z,6.16
2023-02-13T11:17:05.922Z,6.13
2023-02-13T11:18:19.389Z,6.24
2023-02-13T11:19:37.506Z,6.08
2023-02-13T11:20:44.680Z,6.17
2023-02-13T11:21:47.679Z,6.29
2023-02-13T11:22:49.436Z,6.35
2023-02-13T11:23:53.573Z,6.43
2023-02-13T11:25:00.699Z,6.52
2023-02-13T11:26:13.277Z,6.59
2023-02-13T11:27:15.071Z,6.67
2023-02-13T11:28:21.067Z,6.76
2023-02-13T11:29:26.959Z,6.71
2023-02-13T11:30:36.734Z,6.39
2023-02-13T11:31:38.669Z,6.04
2023-02-13T11:32:40.472Z,6.00
2023-02-13T11:33:42.705Z,6.07
2023-02-13T11:34:45.449Z,6.17
2023-02-13T11:35:48.077Z,6.27
2023-02-13T11:36:54.533Z,6.38
2023-02-13T11:38:20.869Z,6.47
2023-02-13T11:39:26.850Z,6.53
2023-02-13T11:40:32.449Z,6.42
2023-02-13T11:41:42.317Z,6.41
2023-02-13T11:42:48.033Z,6.47
2023-02-13T11:44:02.073Z,6.47
2023-02-13T11:45:19.843Z,6.51
2023-02-13T11:46:25.458Z,6.56
2023-02-13T11:47:42.326Z,6.47
2023-02-13T11:48:55.777Z,6.61
2023-02-13T11:49:57.390Z,6.72
2023-02-13T11:50:59.386Z,6.74
2023-02-13T11:52:23.012Z,6.81
2023-02-13T11:53:31.502Z,6.81
2023-02-13T11:54:35.247Z,6.82
2023-02-13T11:55:39.753Z,6.82
2023-02-13T11:57:07.369Z,6.79
2023-02-13T11:58:11.861Z,6.85
2023-02-13T11:59:14.218Z,6.91
2023-02-13T12:00:37.830Z,6.84
2023-02-13T12:01:39.463Z,6.78
2023-02-13T12:02:48.047Z,6.82
2023-02-13T12:04:18.502Z,6.82
2023-02-13T12:05:22.882Z,6.91
2023-02-13T12:06:24.405Z,6.89
2023-02-13T12:07:31.036Z,6.91
2023-02-13T12:08:35.615Z,6.96
2023-02-13T12:09:40.197Z,7.01
2023-02-13T12:10:41.875Z,7.07
2023-02-13T12:11:48.330Z,7.01
2023-02-13T12:13:06.048Z,6.99
2023-02-13T12:14:14.056Z,7.00
2023-02-13T12:15:22.440Z,7.01
2023-02-13T12:16:29.424Z,6.94
2023-02-13T12:17:33.089Z,6.94
2023-02-13T12:18:38.810Z,7.03
2023-02-13T12:19:43.879Z,7.14
2023-02-13T12:21:11.435Z,7.16
2023-02-13T12:22:21.911Z,7.35
2023-02-13T12:23:29.556Z,7.42
2023-02-13T12:25:16.543Z,7.46
2023-02-13T12:26:50.525Z,7.48
2023-02-13T12:28:35.487Z,7.38
2023-02-13T12:29:55.756Z,7.32
2023-02-13T12:31:09.424Z,7.30
2023-02-13T12:32:19.229Z,7.32
2023-02-13T12:33:36.874Z,7.34
2023-02-13T12:35:15.897Z,7.35
2023-02-13T12:36:23.502Z,7.33
2023-02-13T12:37:59.161Z,7.45
2023-02-13T12:39:26.244Z,7.43
2023-02-13T12:40:42.930Z,7.40
2023-02-13T12:41:50.448Z,7.40
2023-02-13T12:43:07.719Z,7.41
2023-02-13T12:44:33.650Z,7.37
2023-02-13T12:45:43.541Z,7.32
2023-02-13T12:47:06.489Z,7.34
2023-02-13T12:48:48.291Z,7.35
2023-02-13T12:50:06.483Z,7.39
2023-02-13T12:51:26.890Z,7.46
2023-02-13T12:53:01.378Z,7.48
2023-02-13T12:54:21.367Z,7.50
2023-02-13T12:56:00.482Z,7.63
2023-02-13T12:57:23.358Z,7.50
2023-02-13T12:58:38.481Z,7.54
2023-02-13T13:00:15.494Z,7.55
2023-02-13T13:01:44.601Z,7.53
2023-02-13T13:02:57.258Z,7.49
2023-02-13T13:04:07.975Z,7.45
2023-02-13T13:05:24.775Z,7.49
2023-02-13T13:06:35.567Z,7.52
2023-02-13T13:08:00.651Z,7.58
2023-02-13T13:09:23.571Z,7.74
2023-02-13T13:10:35.987Z,7.67
2023-02-13T13:11:59.010Z,7.66
2023-02-13T13:13:27.929Z,7.83
2023-02-13T13:14:48.312Z,7.82
2023-02-13T13:16:04.846Z,7.76
2023-02-13T13:17:34.136Z,7.62
2023-02-13T13:18:50.215Z,7.73
2023-02-13T13:20:21.380Z,7.76
2023-02-13T13:21:53.466Z,7.77
2023-02-13T13:23:00.097Z,7.91
2023-02-13T13:24:25.964Z,7.89
2023-02-13T13:25:43.978Z,7.93
2023-02-13T13:26:49.942Z,7.89
2023-02-13T13:27:57.947Z,7.90
2023-02-13T13:29:03.888Z,7.84
2023-02-13T13:30:18.029Z,7.80
2023-02-13T13:31:21.261Z,7.73
2023-02-13T13:32:23.838Z,7.72
2023-02-13T13:33:28.335Z,7.80
2023-02-13T13:34:31.644Z,7.81
2023-02-13T13:35:34.463Z,7.85
2023-02-13T13:36:54.016Z,7.92
2023-02-13T13:38:06.681Z,7.92
2023-02-13T13:39:24.792Z,7.80
2023-02-13T13:40:32.368Z,7.86
2023-02-13T13:41:51.692Z,7.90
2023-02-13T13:43:29.795Z,7.85
2023-02-13T13:44:49.233Z,7.86
2023-02-13T13:46:09.441Z,7.79
2023-02-13T13:47:23.818Z,7.68
2023-02-13T13:49:02.823Z,7.68
2023-02-13T13:50:06.990Z,7.74
2023-02-13T13:51:17.912Z,7.83
2023-02-13T13:52:21.173Z,7.83
2023-02-13T13:53:26.481Z,7.96
2023-02-13T13:54:35.070Z,7.93
2023-02-13T13:56:00.972Z,7.92
2023-02-13T13:57:02.483Z,7.95
2023-02-13T13:58:04.740Z,7.97
2023-02-13T13:59:17.635Z,8.00
2023-02-13T14:00:26.159Z,8.00
2023-02-13T14:01:29.681Z,8.02
2023-02-13T14:02:48.327Z,8.01
2023-02-13T14:03:52.602Z,8.04
2023-02-13T14:05:15.611Z,8.04
2023-02-13T14:06:45.009Z,7.99
2023-02-13T14:07:49.510Z,8.04
2023-02-13T14:09:01.731Z,8.07
2023-02-13T14:10:04.697Z,8.11
2023-02-13T14:11:25.624Z,8.14
2023-02-13T14:12:30.175Z,8.17
2023-02-13T14:13:40.304Z,8.08
2023-02-13T14:14:41.789Z,7.93
2023-02-13T14:15:44.673Z,7.90
2023-02-13T14:16:46.816Z,7.94
2023-02-13T14:17:52.028Z,8.06
2023-02-13T14:18:53.763Z,8.06
2023-02-13T14:19:58.273Z,8.04
2023-02-13T14:21:02.457Z,7.98
2023-02-13T14:22:19.721Z,8.02
2023-02-13T14:23:50.414Z,8.04
2023-02-13T14:24:58.042Z,8.09
2023-02-13T14:26:17.623Z,8.18
2023-02-13T14:27:39.308Z,8.34
2023-02-13T14:28:43.904Z,8.31
2023-02-13T14:29:48.656Z,8.41
2023-02-13T14:30:55.796Z,8.41
2023-02-13T14:32:03.819Z,8.41
2023-02-13T14:33:28.671Z,8.38
2023-02-13T14:34:33.880Z,8.42
2023-02-13T14:35:37.993Z,8.28
2023-02-13T14:37:02.211Z,8.24
2023-02-13T14:38:07.986Z,8.22
2023-02-13T14:39:34.315Z,8.25
2023-02-13T14:40:49.427Z,8.17
2023-02-13T14:41:50.964Z,8.16
2023-02-13T14:42:57.898Z,8.09
2023-02-13T14:43:59.680Z,8.04
2023-02-13T14:45:04.394Z,8.06
2023-02-13T14:46:14.134Z,8.05
2023-02-13T14:47:29.054Z,8.07
2023-02-13T14:48:51.503Z,8.07
2023-02-13T14:49:53.424Z,8.07
2023-02-13T14:50:58.097Z,8.09
2023-02-13T14:52:04.501Z,8.07
2023-02-13T14:53:16.424Z,8.10
2023-02-13T14:54:29.844Z,8.04
2023-02-13T14:55:43.335Z,7.95
2023-02-13T14:56:47.359Z,8.00
2023-02-13T14:58:07.180Z,8.01
2023-02-13T14:59:18.889Z,8.11
2023-02-13T15:00:40.971Z,8.10